createdAt,value
2022-10-18T00:01:04.330Z,9.98
2022-10-18T00:03:34.351Z,7.68
2022-10-18T00:06:04.517Z,10.13
2022-10-18T00:08:31.627Z,14.13
2022-10-18T00:10:58.310Z,7.88
2022-10-18T00:13:27.282Z,8.73
2022-10-18T00:15:59.164Z,8.63
2022-10-18T00:18:28.632Z,8.52
2022-10-18T00:21:08.650Z,7.63
2022-10-18T00:23:36.582Z,9.75
2022-10-18T00:26:11.831Z,8.00
2022-10-18T00:28:39.184Z,9.63
2022-10-18T00:31:30.359Z,12.73
2022-10-18T00:33:59.621Z,7.22
2022-10-18T00:36:27.910Z,4.90
2022-10-18T00:38:57.230Z,9.55
2022-10-18T00:41:28.531Z,12.10
2022-10-18T00:44:04.992Z,7.05
2022-10-18T00:46:41.982Z,9.52
2022-10-18T00:49:33.162Z,14.50
2022-10-18T00:52:13.103Z,13.00
2022-10-18T00:54:44.373Z,6.15
2022-10-18T00:57:12.645Z,10.50
2022-10-18T00:59:40.226Z,16.80
2022-10-18T01:02:07.958Z,14.10
2022-10-18T01:04:40.562Z,13.75
2022-10-18T01:07:22.179Z,12.40
2022-10-18T01:10:09.432Z,6.90
2022-10-18T01:12:48.042Z,10.10
2022-10-18T01:15:23.577Z,15.18
2022-10-18T01:18:17.532Z,13.60
2022-10-18T01:21:03.000Z,20.65
2022-10-18T01:24:11.619Z,9.48
2022-10-18T01:27:08.622Z,17.30
2022-10-18T01:30:11.207Z,8.43
2022-10-18T01:32:44.421Z,13.05
2022-10-18T01:35:22.317Z,15.68
2022-10-18T01:37:52.545Z,17.75
2022-10-18T01:40:21.967Z,9.95
2022-10-18T01:42:53.770Z,5.78
2022-10-18T01:45:23.310Z,8.73
2022-10-18T01:47:55.629Z,7.35
2022-10-18T01:50:35.523Z,8.05
2022-10-18T01:53:02.351Z,11.45
2022-10-18T01:55:42.005Z,7.13
2022-10-18T01:58:26.293Z,7.97
2022-10-18T02:01:06.771Z,8.00
2022-10-18T02:03:43.231Z,14.38
2022-10-18T02:06:16.929Z,9.43
2022-10-18T02:08:45.762Z,8.38
2022-10-18T02:11:15.438Z,7.90
2022-10-18T02:13:46.873Z,6.43
2022-10-18T02:16:49.955Z,6.97
2022-10-18T02:19:20.433Z,6.15
2022-10-18T02:21:51.663Z,5.45
2022-10-18T02:24:26.360Z,9.27
2022-10-18T02:26:55.516Z,9.20
2022-10-18T02:29:25.104Z,7.57
2022-10-18T02:32:04.975Z,7.78
2022-10-18T02:34:42.800Z,7.70
2022-10-18T02:37:13.809Z,7.55
2022-10-18T02:39:51.531Z,6.78
2022-10-18T02:42:22.185Z,12.73
2022-10-18T02:44:48.824Z,8.25
2022-10-18T02:47:15.503Z,6.28
2022-10-18T02:49:44.658Z,8.93
2022-10-18T02:52:11.336Z,5.78
2022-10-18T02:54:40.909Z,14.07
2022-10-18T02:57:09.873Z,8.00
2022-10-18T02:59:36.583Z,8.55
2022-10-18T03:02:05.698Z,14.77
2022-10-18T03:04:32.364Z,7.53
2022-10-18T03:07:01.442Z,7.13
2022-10-18T03:09:30.316Z,11.93
2022-10-18T03:11:57.761Z,5.10
2022-10-18T03:14:24.500Z,10.10
2022-10-18T03:16:51.344Z,9.73
2022-10-18T03:19:18.005Z,7.45
2022-10-18T03:21:47.246Z,8.85
2022-10-18T03:24:16.443Z,7.20
2022-10-18T03:26:45.333Z,7.45
2022-10-18T03:29:14.736Z,12.63
2022-10-18T03:31:43.707Z,9.73
2022-10-18T03:34:12.543Z,10.90
2022-10-18T03:36:41.572Z,6.68
2022-10-18T03:39:08.322Z,10.38
2022-10-18T03:41:35.015Z,9.80
2022-10-18T03:44:08.932Z,13.05
2022-10-18T03:46:35.575Z,8.52
2022-10-18T03:49:04.528Z,8.70
2022-10-18T03:51:31.241Z,7.22
2022-10-18T03:53:57.890Z,11.45
2022-10-18T03:56:24.559Z,10.40
2022-10-18T03:58:57.079Z,8.23
2022-10-18T04:01:23.925Z,10.50
2022-10-18T04:03:50.640Z,8.68
2022-10-18T04:06:19.789Z,6.03
2022-10-18T04:08:51.131Z,9.88
2022-10-18T04:11:19.929Z,4.70
2022-10-18T04:13:46.659Z,12.73
2022-10-18T04:16:15.591Z,5.70
2022-10-18T04:18:47.195Z,8.70
2022-10-18T04:21:14.311Z,10.43
2022-10-18T04:23:45.351Z,7.80
2022-10-18T04:26:19.933Z,10.32
2022-10-18T04:28:46.919Z,9.77
2022-10-18T04:31:15.872Z,10.02
2022-10-18T04:33:44.976Z,9.98
2022-10-18T04:36:11.814Z,6.72
2022-10-18T04:38:38.620Z,7.78
2022-10-18T04:41:08.457Z,8.70
2022-10-18T04:43:35.189Z,8.45
2022-10-18T04:46:01.945Z,13.00
2022-10-18T04:48:28.668Z,7.20
2022-10-18T04:50:57.773Z,9.05
2022-10-18T04:53:26.588Z,7.93
2022-10-18T04:55:53.300Z,9.13
2022-10-18T04:58:22.565Z,9.35
2022-10-18T05:00:49.875Z,7.57
2022-10-18T05:03:16.851Z,8.63
2022-10-18T05:06:02.693Z,8.07
2022-10-18T05:08:33.408Z,10.95
2022-10-18T05:11:00.380Z,17.52
2022-10-18T05:13:31.826Z,6.75
2022-10-18T05:16:03.217Z,12.07
2022-10-18T05:18:34.928Z,5.43
2022-10-18T05:21:03.990Z,8.35
2022-10-18T05:23:33.202Z,7.47
2022-10-18T05:26:09.541Z,9.93
2022-10-18T05:28:43.505Z,12.52
2022-10-18T05:31:16.037Z,6.20
2022-10-18T05:33:42.793Z,5.85
2022-10-18T05:36:10.159Z,5.47
2022-10-18T05:38:43.475Z,10.20
2022-10-18T05:41:11.550Z,7.45
2022-10-18T05:43:39.409Z,9.27
2022-10-18T05:46:11.895Z,6.13
2022-10-18T05:48:46.442Z,8.68
2022-10-18T05:51:17.849Z,9.60
2022-10-18T05:53:46.821Z,7.53
2022-10-18T05:56:14.432Z,5.50
2022-10-18T05:58:42.499Z,6.28
2022-10-18T06:01:12.550Z,10.82
2022-10-18T06:03:39.326Z,3.35
2022-10-18T06:06:15.626Z,7.60
2022-10-18T06:08:45.127Z,7.72
2022-10-18T06:11:19.247Z,11.00
2022-10-18T06:13:48.968Z,8.85
2022-10-18T06:16:20.424Z,9.85
2022-10-18T06:18:55.708Z,9.25
2022-10-18T06:21:25.819Z,12.85
2022-10-18T06:23:57.405Z,10.45
2022-10-18T06:26:27.542Z,10.38
2022-10-18T06:28:54.347Z,9.10
2022-10-18T06:31:23.519Z,9.70
2022-10-18T06:33:54.895Z,10.40
2022-10-18T06:36:24.379Z,10.85
2022-10-18T06:38:54.330Z,10.75
2022-10-18T06:41:21.984Z,6.25
2022-10-18T06:43:57.449Z,15.52
2022-10-18T06:46:28.935Z,7.90
2022-10-18T06:48:57.788Z,7.30
2022-10-18T06:51:26.726Z,7.95
2022-10-18T06:54:16.405Z,8.60
2022-10-18T06:56:44.530Z,9.55
2022-10-18T06:59:13.688Z,7.03
2022-10-18T07:01:43.552Z,9.50
2022-10-18T07:04:12.564Z,8.30
2022-10-18T07:06:39.287Z,8.85
2022-10-18T07:09:06.023Z,9.60
2022-10-18T07:11:34.964Z,10.73
2022-10-18T07:14:03.151Z,10.07
2022-10-18T07:16:30.601Z,5.18
2022-10-18T07:18:59.893Z,7.00
2022-10-18T07:21:29.776Z,8.88
2022-10-18T07:23:59.473Z,5.38
2022-10-18T07:26:29.233Z,10.93
2022-10-18T07:29:08.203Z,6.25
2022-10-18T07:31:40.908Z,8.50
2022-10-18T07:34:12.603Z,8.75
2022-10-18T07:36:42.159Z,6.10
2022-10-18T07:39:09.301Z,6.05
2022-10-18T07:41:36.230Z,5.38
2022-10-18T07:44:03.970Z,9.93
2022-10-18T07:46:35.356Z,9.70
2022-10-18T07:49:04.249Z,6.35
2022-10-18T07:51:34.699Z,12.23
2022-10-18T07:54:04.009Z,10.57
2022-10-18T07:56:33.154Z,10.23
2022-10-18T07:58:59.909Z,7.40
2022-10-18T08:01:26.666Z,7.47
2022-10-18T08:03:53.714Z,7.70
2022-10-18T08:06:22.557Z,5.65
2022-10-18T08:08:49.328Z,7.95
2022-10-18T08:11:22.076Z,6.80
2022-10-18T08:13:51.462Z,8.23
2022-10-18T08:16:21.519Z,10.23
2022-10-18T08:18:48.681Z,15.13
2022-10-18T08:21:18.602Z,10.25
2022-10-18T08:23:49.008Z,10.98
2022-10-18T08:26:20.731Z,12.15
2022-10-18T08:28:54.345Z,9.38
2022-10-18T08:31:31.011Z,8.68
2022-10-18T08:33:57.696Z,8.05
2022-10-18T08:36:25.045Z,8.25
2022-10-18T08:38:51.991Z,7.35
2022-10-18T08:41:33.795Z,5.68
2022-10-18T08:44:26.126Z,6.85
2022-10-18T08:49:34.602Z,5.03
2022-10-18T08:52:05.997Z,2.72
2022-10-18T08:54:41.823Z,5.35
2022-10-18T08:57:18.249Z,3.35
2022-10-18T08:59:44.977Z,3.47
2022-10-18T09:02:20.918Z,4.25
2022-10-18T09:05:15.296Z,7.10
2022-10-18T09:07:45.133Z,3.92
2022-10-18T09:10:39.215Z,4.82
2022-10-18T09:13:32.198Z,5.22
2022-10-18T09:15:59.849Z,3.95
2022-10-18T09:18:35.747Z,3.53
2022-10-18T09:21:37.334Z,3.60
2022-10-18T09:24:04.221Z,3.97
2022-10-18T09:26:39.853Z,4.55
2022-10-18T09:29:27.676Z,3.90
2022-10-18T09:32:06.402Z,6.97
2022-10-18T09:35:14.333Z,5.72
2022-10-18T09:37:44.047Z,3.42
2022-10-18T09:40:23.093Z,3.50
2022-10-18T09:43:00.872Z,5.95
2022-10-18T09:45:53.220Z,6.60
2022-10-18T09:48:28.889Z,7.75
2022-10-18T09:51:03.394Z,4.25
2022-10-18T09:53:54.882Z,6.13
2022-10-18T09:56:29.707Z,3.28
2022-10-18T09:58:56.617Z,3.95
2022-10-18T10:01:31.441Z,3.10
2022-10-18T10:04:00.335Z,3.25
2022-10-18T10:06:31.911Z,8.15
2022-10-18T10:09:04.967Z,4.07
2022-10-18T10:11:45.697Z,3.42
2022-10-18T10:14:25.480Z,4.47
2022-10-18T10:16:52.405Z,4.10
2022-10-18T10:19:59.611Z,6.28
2022-10-18T10:22:38.833Z,4.47
2022-10-18T10:25:07.197Z,6.40
2022-10-18T10:27:43.314Z,2.92
2022-10-18T10:30:39.259Z,3.90
2022-10-18T10:33:31.717Z,7.25
2022-10-18T10:36:00.036Z,5.85
2022-10-18T10:38:30.542Z,4.38
2022-10-18T10:40:57.843Z,6.43
2022-10-18T10:43:40.449Z,4.47
2022-10-18T10:46:09.585Z,7.28
2022-10-18T10:48:48.651Z,3.85
2022-10-18T10:51:31.177Z,4.97
2022-10-18T10:54:00.123Z,3.30
2022-10-18T10:56:28.723Z,6.53
2022-10-18T10:59:00.877Z,6.60
2022-10-18T11:01:31.074Z,5.63
2022-10-18T11:04:02.685Z,6.20
2022-10-18T11:07:09.043Z,3.58
2022-10-18T11:09:50.880Z,5.50
2022-10-18T11:12:52.006Z,5.40
2022-10-18T11:15:35.922Z,3.22
2022-10-18T11:18:32.841Z,4.95
2022-10-18T11:21:08.142Z,3.50
2022-10-18T11:23:37.455Z,4.32
2022-10-18T11:26:13.268Z,5.85
2022-10-18T11:28:52.010Z,6.03
2022-10-18T11:31:24.625Z,3.08
2022-10-18T11:34:20.459Z,4.10
2022-10-18T11:40:27.917Z,4.55
2022-10-18T11:43:00.784Z,4.78
2022-10-18T11:45:27.462Z,5.30
2022-10-18T11:48:36.233Z,3.63
2022-10-18T11:51:14.254Z,4.53
2022-10-18T11:54:01.798Z,4.60
2022-10-18T11:56:49.829Z,7.95
2022-10-18T11:59:31.002Z,5.43
2022-10-18T12:02:26.132Z,4.47
2022-10-18T12:05:18.895Z,5.70
2022-10-18T12:08:02.188Z,3.58
2022-10-18T12:10:45.988Z,3.38
2022-10-18T12:13:35.408Z,5.35
2022-10-18T12:16:09.477Z,2.78
2022-10-18T12:18:43.283Z,5.97
2022-10-18T12:21:14.460Z,3.55
2022-10-18T12:23:44.062Z,11.43
2022-10-18T12:26:13.630Z,5.38
2022-10-18T12:29:04.921Z,4.63
2022-10-18T12:31:39.744Z,6.30
2022-10-18T12:34:21.467Z,4.25
2022-10-18T12:37:17.035Z,4.55
2022-10-18T12:40:18.760Z,4.82
2022-10-18T12:45:32.971Z,5.15
2022-10-18T12:48:03.887Z,5.28
2022-10-18T12:50:35.026Z,6.10
2022-10-18T12:53:16.800Z,5.82
2022-10-18T12:55:48.934Z,6.10
2022-10-18T12:58:15.663Z,5.47
2022-10-18T13:00:42.290Z,3.28
2022-10-18T13:03:18.026Z,8.70
2022-10-18T13:05:56.185Z,4.20
2022-10-18T13:08:30.118Z,5.03
2022-10-18T13:11:11.349Z,4.90
2022-10-18T13:14:28.273Z,4.93
2022-10-18T13:16:57.836Z,5.10
2022-10-18T13:19:33.247Z,6.10
2022-10-18T13:22:11.879Z,6.30
2022-10-18T13:25:04.231Z,5.28
2022-10-18T13:27:39.834Z,5.10
2022-10-18T13:30:18.525Z,5.88
2022-10-18T13:33:22.066Z,7.43
2022-10-18T13:36:05.344Z,3.83
2022-10-18T13:38:44.799Z,5.38
2022-10-18T13:41:13.038Z,14.35
2022-10-18T13:44:13.026Z,6.72
2022-10-18T13:46:39.762Z,4.88
2022-10-18T13:49:29.678Z,3.75
2022-10-18T13:52:11.253Z,3.30
2022-10-18T13:54:59.233Z,3.25
2022-10-18T13:57:53.290Z,3.50
2022-10-18T14:00:49.033Z,3.95
2022-10-18T14:03:57.023Z,4.13
2022-10-18T14:06:31.122Z,4.18
2022-10-18T14:09:09.565Z,2.53
2022-10-18T14:11:56.502Z,3.75
2022-10-18T14:14:42.749Z,2.25
2022-10-18T14:17:44.292Z,3.47
2022-10-18T14:20:36.905Z,4.60
2022-10-18T14:23:21.218Z,3.83
2022-10-18T14:25:48.516Z,2.13
2022-10-18T14:28:18.520Z,3.88
2022-10-18T14:30:56.284Z,3.90
2022-10-18T14:33:35.245Z,6.10
2022-10-18T14:36:12.936Z,3.58
2022-10-18T14:38:47.537Z,2.80
2022-10-18T14:41:16.387Z,2.28
2022-10-18T14:43:48.379Z,1.77
2022-10-18T14:46:23.825Z,4.65
2022-10-18T14:48:58.119Z,3.30
2022-10-18T14:51:28.309Z,4.72
2022-10-18T14:53:55.750Z,2.80
2022-10-18T14:56:42.776Z,3.35
2022-10-18T14:59:27.094Z,3.13
2022-10-18T15:02:10.845Z,2.00
2022-10-18T15:04:37.535Z,3.65
2022-10-18T15:07:07.028Z,2.10
2022-10-18T15:09:36.006Z,2.25
2022-10-18T15:12:05.541Z,3.65
2022-10-18T15:14:38.890Z,2.22
2022-10-18T15:17:16.610Z,7.43
2022-10-18T15:20:04.991Z,4.28
2022-10-18T15:22:33.744Z,3.10
2022-10-18T15:25:22.049Z,2.97
2022-10-18T15:27:55.418Z,2.72
2022-10-18T15:30:43.772Z,3.33
2022-10-18T15:33:25.311Z,2.72
2022-10-18T15:35:53.487Z,5.78
2022-10-18T15:38:36.227Z,4.32
2022-10-18T15:41:39.076Z,3.35
2022-10-18T15:44:24.332Z,2.78
2022-10-18T15:46:56.925Z,2.85
2022-10-18T15:49:45.509Z,3.63
2022-10-18T15:52:36.644Z,3.65
2022-10-18T15:55:30.191Z,4.40
2022-10-18T16:00:38.115Z,5.00
2022-10-18T16:03:08.706Z,4.25
2022-10-18T16:05:37.319Z,3.28
2022-10-18T16:08:04.265Z,3.20
2022-10-18T16:10:33.349Z,8.15
2022-10-18T16:13:02.490Z,9.73
2022-10-18T16:15:31.681Z,2.80
2022-10-18T16:18:03.070Z,5.13
2022-10-18T16:20:31.950Z,5.85
2022-10-18T16:22:58.639Z,2.60
2022-10-18T16:25:25.478Z,9.32
2022-10-18T16:27:54.614Z,7.95
2022-10-18T16:30:24.959Z,8.20
2022-10-18T16:32:51.691Z,7.22
2022-10-18T16:35:20.899Z,7.97
2022-10-18T16:37:50.048Z,11.77
2022-10-18T16:40:24.268Z,5.85
2022-10-18T16:42:53.827Z,4.97
2022-10-18T16:45:20.599Z,11.75
2022-10-18T16:47:47.427Z,10.25
2022-10-18T16:50:21.791Z,7.43
2022-10-18T16:52:50.990Z,7.40
2022-10-18T16:55:24.730Z,3.92
2022-10-18T16:57:51.825Z,5.68
2022-10-18T17:00:25.197Z,6.35
2022-10-18T17:02:52.118Z,7.85
2022-10-18T17:05:23.088Z,3.75
2022-10-18T17:07:50.092Z,9.13
2022-10-18T17:10:21.478Z,8.75
2022-10-18T17:12:50.606Z,5.45
2022-10-18T17:15:22.445Z,4.15
2022-10-18T17:20:27.251Z,9.68
2022-10-18T17:22:56.180Z,7.22
2022-10-18T17:25:22.899Z,8.82
2022-10-18T17:27:51.768Z,9.45
2022-10-18T17:30:18.602Z,5.03
2022-10-18T17:32:45.413Z,9.88
2022-10-18T17:35:14.769Z,10.05
2022-10-18T17:37:48.105Z,12.35
2022-10-18T17:40:14.837Z,4.57
2022-10-18T17:42:41.592Z,13.05
2022-10-18T17:45:12.285Z,7.75
2022-10-18T17:47:41.222Z,7.45
2022-10-18T17:50:10.738Z,11.25
2022-10-18T17:52:46.605Z,5.50
2022-10-18T17:55:16.037Z,8.13
2022-10-18T17:57:42.922Z,7.30
2022-10-18T18:00:12.020Z,11.68
2022-10-18T18:02:41.808Z,12.48
2022-10-18T18:05:09.386Z,14.25
2022-10-18T18:07:38.449Z,6.82
2022-10-18T18:10:05.524Z,12.45
2022-10-18T18:12:34.707Z,6.53
2022-10-18T18:15:01.689Z,16.13
2022-10-18T18:17:33.966Z,9.93
2022-10-18T18:20:07.159Z,9.43
2022-10-18T18:22:36.006Z,4.93
2022-10-18T18:25:04.934Z,8.80
2022-10-18T18:27:31.655Z,8.93
2022-10-18T18:30:00.769Z,11.00
2022-10-18T18:32:29.673Z,6.57
2022-10-18T18:34:58.939Z,16.10
2022-10-18T18:37:25.678Z,10.43
2022-10-18T18:39:54.620Z,8.07
2022-10-18T18:42:22.527Z,6.63
2022-10-18T18:44:49.978Z,10.00
2022-10-18T18:47:21.609Z,6.82
2022-10-18T18:49:53.358Z,9.20
2022-10-18T18:52:20.057Z,10.00
2022-10-18T18:54:46.971Z,9.63
2022-10-18T18:57:15.882Z,10.70
2022-10-18T18:59:45.073Z,10.32
2022-10-18T19:02:11.785Z,10.02
2022-10-18T19:04:41.381Z,8.63
2022-10-18T19:07:08.200Z,9.10
2022-10-18T19:09:42.110Z,7.95
2022-10-18T19:12:15.315Z,4.43
2022-10-18T19:14:44.351Z,9.15
2022-10-18T19:17:15.751Z,10.65
2022-10-18T19:19:43.348Z,5.38
2022-10-18T19:22:12.425Z,10.80
2022-10-18T19:24:39.085Z,13.05
2022-10-18T19:27:12.729Z,6.32
2022-10-18T19:29:40.846Z,7.28
2022-10-18T19:32:14.951Z,7.15
2022-10-18T19:34:41.719Z,6.28
2022-10-18T19:37:13.273Z,9.05
2022-10-18T19:39:45.170Z,12.05
2022-10-18T19:42:19.214Z,13.00
2022-10-18T19:44:51.124Z,12.65
2022-10-18T19:47:22.615Z,11.50
2022-10-18T19:49:49.372Z,10.88
2022-10-18T19:52:18.572Z,16.17
2022-10-18T19:54:45.684Z,11.63
2022-10-18T19:57:14.738Z,10.88
2022-10-18T19:59:44.111Z,11.38
2022-10-18T20:02:14.703Z,9.88
2022-10-18T20:04:41.675Z,10.95
2022-10-18T20:07:11.372Z,11.23
2022-10-18T20:09:39.562Z,8.27
2022-10-18T20:12:06.356Z,9.02
2022-10-18T20:14:33.058Z,7.13
2022-10-18T20:16:59.970Z,11.10
2022-10-18T20:19:26.726Z,12.57
2022-10-18T20:21:57.854Z,11.15
2022-10-18T20:24:24.631Z,14.43
2022-10-18T20:29:20.757Z,10.30
2022-10-18T20:31:47.556Z,10.23
2022-10-18T20:34:16.383Z,15.90
2022-10-18T20:36:43.233Z,9.45
2022-10-18T20:39:12.231Z,7.05
2022-10-18T20:41:42.730Z,12.25
2022-10-18T20:44:16.042Z,12.07
2022-10-18T20:46:48.104Z,7.93
2022-10-18T20:49:18.184Z,9.18
2022-10-18T20:51:47.377Z,8.55
2022-10-18T20:54:20.923Z,11.63
2022-10-18T20:56:47.684Z,9.60
2022-10-18T20:59:14.712Z,16.75
2022-10-18T21:01:47.398Z,10.20
2022-10-18T21:04:14.235Z,16.45
2022-10-18T21:06:45.123Z,12.35
2022-10-18T21:09:18.089Z,16.30
2022-10-18T21:11:50.677Z,11.18
2022-10-18T21:14:24.261Z,12.60
2022-10-18T21:16:52.205Z,12.00
2022-10-18T21:19:26.602Z,11.75
2022-10-18T21:21:57.369Z,9.02
2022-10-18T21:24:25.648Z,10.23
2022-10-18T21:26:55.015Z,16.42
2022-10-18T21:29:24.522Z,9.38
2022-10-18T21:31:59.213Z,13.02
2022-10-18T21:34:26.598Z,14.68
2022-10-18T21:36:55.613Z,14.63
2022-10-18T21:39:25.698Z,7.60
2022-10-18T21:41:52.426Z,10.60
2022-10-18T21:44:26.034Z,12.90
2022-10-18T21:46:57.330Z,11.40
2022-10-18T21:49:29.017Z,16.23
2022-10-18T21:51:55.980Z,12.35
2022-10-18T21:54:22.642Z,13.85
2022-10-18T21:56:51.927Z,11.77
2022-10-18T21:59:18.606Z,18.15
2022-10-18T22:01:45.681Z,13.60
2022-10-18T22:04:23.332Z,14.77
2022-10-18T22:06:53.113Z,8.93
2022-10-18T22:09:23.237Z,11.90
2022-10-18T22:11:53.472Z,13.27
2022-10-18T22:14:21.282Z,18.15
2022-10-18T22:16:48.362Z,9.70
2022-10-18T22:19:17.225Z,9.60
2022-10-18T22:21:44.008Z,12.20
2022-10-18T22:24:10.798Z,13.50
2022-10-18T22:26:39.866Z,15.68
2022-10-18T22:29:10.257Z,9.65
2022-10-18T22:31:40.108Z,11.27
2022-10-18T22:34:13.991Z,10.45
2022-10-18T22:36:40.915Z,20.52
2022-10-18T22:39:08.858Z,13.68
2022-10-18T22:41:38.441Z,15.13
2022-10-18T22:44:05.235Z,9.93
2022-10-18T22:46:34.721Z,15.68
2022-10-18T22:49:01.494Z,8.75
2022-10-18T22:51:32.638Z,10.30
2022-10-18T22:54:01.622Z,15.77
2022-10-18T22:56:30.492Z,12.15
2022-10-18T22:58:57.359Z,9.45
2022-10-18T23:01:26.602Z,11.82
2022-10-18T23:04:00.150Z,10.40
2022-10-18T23:06:37.179Z,11.20
2022-10-18T23:09:12.685Z,11.82
2022-10-18T23:11:39.367Z,12.27
2022-10-18T23:14:09.976Z,13.93
2022-10-18T23:16:41.209Z,7.38
2022-10-18T23:19:10.051Z,20.25
2022-10-18T23:21:38.858Z,18.67
2022-10-18T23:24:07.764Z,18.85
2022-10-18T23:26:34.479Z,16.58
2022-10-18T23:29:03.943Z,13.18
2022-10-18T23:31:34.782Z,23.25
2022-10-18T23:34:06.188Z,12.90
2022-10-18T23:36:33.776Z,22.73
2022-10-18T23:39:01.036Z,21.23
2022-10-18T23:41:30.278Z,21.10
2022-10-18T23:43:59.613Z,17.17
2022-10-18T23:46:28.871Z,9.65
2022-10-18T23:48:57.766Z,22.38
2022-10-18T23:51:26.808Z,27.60
2022-10-18T23:53:53.517Z,12.35
2022-10-18T23:56:22.583Z,23.48
2022-10-18T23:58:54.000Z,13.45
